sensor_id;sensor_type;location;lat;lon;timestamp;pressure;altitude;pressure_sealevel;temperature;humidity
56084;BME280;41958;52.416;13.428;2022-07-21T00:01:28;100938.50;;;22.88;51.13
56084;BME280;41958;52.416;13.428;2022-07-21T00:03:54;100934.06;;;22.84;51.19
56084;BME280;41958;52.416;13.428;2022-07-21T00:06:19;100945.84;;;22.86;51.17
56084;BME280;41958;52.416;13.428;2022-07-21T00:08:45;100937.31;;;22.86;51.21
56084;BME280;41958;52.416;13.428;2022-07-21T00:11:10;100935.66;;;22.88;51.62
56084;BME280;41958;52.416;13.428;2022-07-21T00:13:35;100929.34;;;23.01;51.14
56084;BME280;41958;52.416;13.428;2022-07-21T00:16:01;100928.34;;;23.11;50.28
56084;BME280;41958;52.416;13.428;2022-07-21T00:18:26;100929.16;;;23.12;50.71
56084;BME280;41958;52.416;13.428;2022-07-21T00:20:54;100917.03;;;23.31;49.74
56084;BME280;41958;52.416;13.428;2022-07-21T00:23:20;100908.81;;;23.57;49.37
56084;BME280;41958;52.416;13.428;2022-07-21T00:25:46;100908.09;;;23.53;48.85
56084;BME280;41958;52.416;13.428;2022-07-21T00:28:11;100904.69;;;23.62;48.90
56084;BME280;41958;52.416;13.428;2022-07-21T00:30:36;100894.75;;;23.70;48.90
56084;BME280;41958;52.416;13.428;2022-07-21T00:33:02;100887.91;;;23.64;49.01
56084;BME280;41958;52.416;13.428;2022-07-21T00:35:27;100887.56;;;23.62;48.94
56084;BME280;41958;52.416;13.428;2022-07-21T00:37:52;100896.41;;;23.67;48.86
56084;BME280;41958;52.416;13.428;2022-07-21T00:40:18;100892.94;;;23.56;49.21
56084;BME280;41958;52.416;13.428;2022-07-21T00:42:43;100895.06;;;23.52;49.16
56084;BME280;41958;52.416;13.428;2022-07-21T00:45:10;100896.13;;;23.38;49.48
56084;BME280;41958;52.416;13.428;2022-07-21T00:47:36;100892.88;;;23.16;50.38
56084;BME280;41958;52.416;13.428;2022-07-21T00:50:04;100895.13;;;23.01;50.95
56084;BME280;41958;52.416;13.428;2022-07-21T00:52:30;100888.47;;;22.84;52.37
56084;BME280;41958;52.416;13.428;2022-07-21T00:54:55;100900.13;;;22.69;52.48
56084;BME280;41958;52.416;13.428;2022-07-21T00:57:21;100901.13;;;22.55;52.52
56084;BME280;41958;52.416;13.428;2022-07-21T00:59:46;100902.13;;;22.42;53.32
56084;BME280;41958;52.416;13.428;2022-07-21T01:02:12;100898.59;;;22.30;54.17
56084;BME280;41958;52.416;13.428;2022-07-21T01:04:37;100901.97;;;22.21;54.86
56084;BME280;41958;52.416;13.428;2022-07-21T01:07:04;100903.69;;;22.15;55.48
56084;BME280;41958;52.416;13.428;2022-07-21T01:09:30;100901.75;;;22.09;55.67
56084;BME280;41958;52.416;13.428;2022-07-21T01:11:57;100895.34;;;21.97;56.20
56084;BME280;41958;52.416;13.428;2022-07-21T01:14:23;100898.63;;;21.96;56.08
56084;BME280;41958;52.416;13.428;2022-07-21T01:16:48;100893.00;;;21.92;55.83
56084;BME280;41958;52.416;13.428;2022-07-21T01:19:14;100888.44;;;21.98;55.60
56084;BME280;41958;52.416;13.428;2022-07-21T01:21:42;100895.00;;;21.95;55.24
56084;BME280;41958;52.416;13.428;2022-07-21T01:24:08;100884.88;;;21.90;55.45
56084;BME280;41958;52.416;13.428;2022-07-21T01:26:52;100880.78;;;21.92;55.72
56084;BME280;41958;52.416;13.428;2022-07-21T01:29:18;100877.19;;;21.87;56.05
56084;BME280;41958;52.416;13.428;2022-07-21T01:31:46;100881.22;;;21.90;55.51
56084;BME280;41958;52.416;13.428;2022-07-21T01:34:11;100871.03;;;21.93;55.54
56084;BME280;41958;52.416;13.428;2022-07-21T01:36:37;100880.66;;;22.02;55.99
56084;BME280;41958;52.416;13.428;2022-07-21T01:39:04;100874.59;;;22.00;55.14
56084;BME280;41958;52.416;13.428;2022-07-21T01:41:48;100884.41;;;21.96;56.12
56084;BME280;41958;52.416;13.428;2022-07-21T01:44:13;100881.66;;;21.88;55.59
56084;BME280;41958;52.416;13.428;2022-07-21T01:46:44;100882.88;;;21.87;56.35
56084;BME280;41958;52.416;13.428;2022-07-21T01:49:10;100873.13;;;21.88;56.11
56084;BME280;41958;52.416;13.428;2022-07-21T01:51:36;100865.78;;;21.91;56.02
56084;BME280;41958;52.416;13.428;2022-07-21T01:54:01;100859.75;;;21.85;56.16
56084;BME280;41958;52.416;13.428;2022-07-21T01:56:27;100869.88;;;21.86;55.96
56084;BME280;41958;52.416;13.428;2022-07-21T01:58:55;100873.22;;;21.81;56.57
56084;BME280;41958;52.416;13.428;2022-07-21T02:01:22;100869.63;;;21.73;56.91
56084;BME280;41958;52.416;13.428;2022-07-21T02:03:48;100874.91;;;21.75;57.01
56084;BME280;41958;52.416;13.428;2022-07-21T02:06:14;100868.34;;;21.78;56.59
56084;BME280;41958;52.416;13.428;2022-07-21T02:08:40;100870.84;;;21.76;57.04
56084;BME280;41958;52.416;13.428;2022-07-21T02:11:07;100868.00;;;21.76;56.38
56084;BME280;41958;52.416;13.428;2022-07-21T02:13:33;100869.22;;;21.75;56.81
56084;BME280;41958;52.416;13.428;2022-07-21T02:15:58;100874.91;;;21.75;56.92
56084;BME280;41958;52.416;13.428;2022-07-21T02:18:23;100875.31;;;21.77;56.56
56084;BME280;41958;52.416;13.428;2022-07-21T02:20:49;100870.53;;;21.67;57.35
56084;BME280;41958;52.416;13.428;2022-07-21T02:23:16;100870.50;;;21.70;57.28
56084;BME280;41958;52.416;13.428;2022-07-21T02:25:42;100877.44;;;21.66;57.27
56084;BME280;41958;52.416;13.428;2022-07-21T02:28:07;100882.69;;;21.67;57.17
56084;BME280;41958;52.416;13.428;2022-07-21T02:30:32;100877.47;;;21.62;57.58
56084;BME280;41958;52.416;13.428;2022-07-21T02:32:58;100879.97;;;21.56;57.89
56084;BME280;41958;52.416;13.428;2022-07-21T02:35:23;100877.59;;;21.51;57.88
56084;BME280;41958;52.416;13.428;2022-07-21T02:37:48;100876.78;;;21.47;58.03
56084;BME280;41958;52.416;13.428;2022-07-21T02:40:14;100893.13;;;21.39;57.87
56084;BME280;41958;52.416;13.428;2022-07-21T02:42:39;100863.53;;;21.33;58.39
56084;BME280;41958;52.416;13.428;2022-07-21T02:45:08;100878.84;;;21.47;57.75
56084;BME280;41958;52.416;13.428;2022-07-21T02:48:07;100877.97;;;21.53;58.11
56084;BME280;41958;52.416;13.428;2022-07-21T02:50:34;100875.53;;;21.55;58.03
56084;BME280;41958;52.416;13.428;2022-07-21T02:53:02;100882.38;;;21.58;57.29
56084;BME280;41958;52.416;13.428;2022-07-21T02:55:29;100877.91;;;21.61;57.44
56084;BME280;41958;52.416;13.428;2022-07-21T02:58:10;100860.47;;;21.59;57.44
56084;BME280;41958;52.416;13.428;2022-07-21T03:00:41;100863.25;;;21.62;57.37
56084;BME280;41958;52.416;13.428;2022-07-21T03:03:08;100858.69;;;21.72;56.97
56084;BME280;41958;52.416;13.428;2022-07-21T03:05:34;100852.28;;;21.64;57.13
56084;BME280;41958;52.416;13.428;2022-07-21T03:07:59;100859.63;;;21.58;57.47
56084;BME280;41958;52.416;13.428;2022-07-21T03:10:25;100845.06;;;21.56;57.85
56084;BME280;41958;52.416;13.428;2022-07-21T03:12:50;100839.88;;;21.82;56.30
56084;BME280;41958;52.416;13.428;2022-07-21T03:15:16;100844.03;;;21.73;56.83
56084;BME280;41958;52.416;13.428;2022-07-21T03:17:41;100849.84;;;21.63;57.18
56084;BME280;41958;52.416;13.428;2022-07-21T03:20:06;100849.13;;;21.55;57.99
56084;BME280;41958;52.416;13.428;2022-07-21T03:22:32;100864.19;;;21.48;57.78
56084;BME280;41958;52.416;13.428;2022-07-21T03:24:57;100865.91;;;21.42;59.28
56084;BME280;41958;52.416;13.428;2022-07-21T03:27:22;100874.38;;;21.46;58.19
56084;BME280;41958;52.416;13.428;2022-07-21T03:29:47;100879.72;;;21.40;58.65
56084;BME280;41958;52.416;13.428;2022-07-21T03:32:13;100876.91;;;21.36;59.15
56084;BME280;41958;52.416;13.428;2022-07-21T03:34:38;100885.09;;;21.31;59.28
56084;BME280;41958;52.416;13.428;2022-07-21T03:37:03;100874.97;;;21.30;59.15
56084;BME280;41958;52.416;13.428;2022-07-21T03:39:28;100874.56;;;21.28;59.63
56084;BME280;41958;52.416;13.428;2022-07-21T03:41:54;100877.44;;;21.24;59.83
56084;BME280;41958;52.416;13.428;2022-07-21T03:44:19;100893.25;;;21.25;59.16
56084;BME280;41958;52.416;13.428;2022-07-21T03:46:44;100888.41;;;21.26;59.73
56084;BME280;41958;52.416;13.428;2022-07-21T03:49:09;100890.06;;;21.23;59.90
56084;BME280;41958;52.416;13.428;2022-07-21T03:51:35;100887.25;;;21.16;60.47
56084;BME280;41958;52.416;13.428;2022-07-21T03:54:00;100894.19;;;21.15;59.80
56084;BME280;41958;52.416;13.428;2022-07-21T03:56:27;100887.69;;;21.14;60.37
56084;BME280;41958;52.416;13.428;2022-07-21T03:58:52;100889.38;;;21.08;61.40
56084;BME280;41958;52.416;13.428;2022-07-21T04:01:17;100888.09;;;21.13;60.21
56084;BME280;41958;52.416;13.428;2022-07-21T04:03:42;100894.56;;;21.17;61.00
56084;BME280;41958;52.416;13.428;2022-07-21T04:06:08;100896.97;;;21.18;60.85
56084;BME280;41958;52.416;13.428;2022-07-21T04:08:36;100902.66;;;21.18;60.43
56084;BME280;41958;52.416;13.428;2022-07-21T04:11:01;100905.50;;;21.18;60.38
56084;BME280;41958;52.416;13.428;2022-07-21T04:13:27;100920.50;;;21.22;60.50
56084;BME280;41958;52.416;13.428;2022-07-21T04:15:52;100913.19;;;21.21;61.72
56084;BME280;41958;52.416;13.428;2022-07-21T04:18:18;100914.03;;;21.18;61.40
56084;BME280;41958;52.416;13.428;2022-07-21T04:20:43;100923.34;;;21.22;60.59
56084;BME280;41958;52.416;13.428;2022-07-21T04:23:08;100921.25;;;21.27;60.13
56084;BME280;41958;52.416;13.428;2022-07-21T04:25:33;100928.16;;;21.29;59.89
56084;BME280;41958;52.416;13.428;2022-07-21T04:28:00;100935.44;;;21.30;60.03
56084;BME280;41958;52.416;13.428;2022-07-21T04:30:26;100935.44;;;21.34;60.02
56084;BME280;41958;52.416;13.428;2022-07-21T04:32:51;100941.13;;;21.34;60.93
56084;BME280;41958;52.416;13.428;2022-07-21T04:35:17;100948.78;;;21.37;60.74
56084;BME280;41958;52.416;13.428;2022-07-21T04:37:43;100955.63;;;21.43;60.48
56084;BME280;41958;52.416;13.428;2022-07-21T04:40:10;100956.81;;;21.53;60.99
56084;BME280;41958;52.416;13.428;2022-07-21T04:42:36;100956.72;;;21.64;60.24
56084;BME280;41958;52.416;13.428;2022-07-21T04:45:03;100958.97;;;21.80;59.53
56084;BME280;41958;52.416;13.428;2022-07-21T04:47:28;100949.81;;;21.99;57.86
56084;BME280;41958;52.416;13.428;2022-07-21T04:49:54;100949.13;;;22.22;57.56
56084;BME280;41958;52.416;13.428;2022-07-21T04:52:19;100959.09;;;22.42;56.25
56084;BME280;41958;52.416;13.428;2022-07-21T04:54:45;100970.69;;;22.54;55.47
56084;BME280;41958;52.416;13.428;2022-07-21T04:57:10;100966.59;;;22.59;55.06
56084;BME280;41958;52.416;13.428;2022-07-21T04:59:35;100976.75;;;22.60;55.26
56084;BME280;41958;52.416;13.428;2022-07-21T05:02:02;100974.38;;;22.55;55.42
56084;BME280;41958;52.416;13.428;2022-07-21T05:04:28;100980.06;;;22.55;55.54
56084;BME280;41958;52.416;13.428;2022-07-21T05:06:53;100990.28;;;22.52;55.66
56084;BME280;41958;52.416;13.428;2022-07-21T05:09:18;100982.59;;;22.49;56.35
56084;BME280;41958;52.416;13.428;2022-07-21T05:11:44;100991.03;;;22.56;55.58
56084;BME280;41958;52.416;13.428;2022-07-21T05:14:09;101003.31;;;22.81;54.66
56084;BME280;41958;52.416;13.428;2022-07-21T05:16:34;101009.63;;;22.96;54.80
56084;BME280;41958;52.416;13.428;2022-07-21T05:18:59;101009.91;;;23.05;54.61
56084;BME280;41958;52.416;13.428;2022-07-21T05:21:25;101012.97;;;23.18;54.56
56084;BME280;41958;52.416;13.428;2022-07-21T05:23:50;101024.03;;;23.39;54.90
56084;BME280;41958;52.416;13.428;2022-07-21T05:26:15;101023.91;;;23.47;54.21
56084;BME280;41958;52.416;13.428;2022-07-21T05:28:41;101015.56;;;23.60;54.11
56084;BME280;41958;52.416;13.428;2022-07-21T05:31:07;101025.31;;;23.62;53.88
56084;BME280;41958;52.416;13.428;2022-07-21T05:33:33;101015.91;;;23.85;53.81
56084;BME280;41958;52.416;13.428;2022-07-21T05:35:58;101022.25;;;23.97;53.54
56084;BME280;41958;52.416;13.428;2022-07-21T05:38:23;101019.94;;;23.92;53.01
56084;BME280;41958;52.416;13.428;2022-07-21T05:40:48;101024.56;;;24.05;52.87
56084;BME280;41958;52.416;13.428;2022-07-21T05:43:14;101031.56;;;24.01;53.30
56084;BME280;41958;52.416;13.428;2022-07-21T05:45:39;101037.78;;;23.96;52.66
56084;BME280;41958;52.416;13.428;2022-07-21T05:48:04;101035.13;;;24.29;52.66
56084;BME280;41958;52.416;13.428;2022-07-21T05:50:30;101040.16;;;24.21;52.27
56084;BME280;41958;52.416;13.428;2022-07-21T05:52:55;101052.03;;;24.19;52.88
56084;BME280;41958;52.416;13.428;2022-07-21T05:55:20;101051.06;;;24.06;53.08
56084;BME280;41958;52.416;13.428;2022-07-21T05:57:46;101058.00;;;24.05;53.70
56084;BME280;41958;52.416;13.428;2022-07-21T06:00:11;101056.94;;;24.19;53.66
56084;BME280;41958;52.416;13.428;2022-07-21T06:02:37;101067.69;;;24.11;53.72
56084;BME280;41958;52.416;13.428;2022-07-21T06:05:02;101062.22;;;24.20;53.25
56084;BME280;41958;52.416;13.428;2022-07-21T06:07:27;101071.13;;;24.22;53.30
56084;BME280;41958;52.416;13.428;2022-07-21T06:09:52;101056.25;;;24.11;53.08
56084;BME280;41958;52.416;13.428;2022-07-21T06:12:18;101050.78;;;24.20;53.34
56084;BME280;41958;52.416;13.428;2022-07-21T06:14:43;101048.25;;;24.46;52.71
56084;BME280;41958;52.416;13.428;2022-07-21T06:17:08;101043.31;;;24.47;52.26
56084;BME280;41958;52.416;13.428;2022-07-21T06:19:34;101052.63;;;24.51;52.44
56084;BME280;41958;52.416;13.428;2022-07-21T06:21:59;101043.47;;;24.39;53.11
56084;BME280;41958;52.416;13.428;2022-07-21T06:24:25;101044.66;;;24.42;52.95
56084;BME280;41958;52.416;13.428;2022-07-21T06:26:52;101051.09;;;24.46;53.48
56084;BME280;41958;52.416;13.428;2022-07-21T06:29:17;101062.16;;;24.44;53.48
56084;BME280;41958;52.416;13.428;2022-07-21T06:31:42;101066.31;;;24.39;53.38
56084;BME280;41958;52.416;13.428;2022-07-21T06:34:07;101067.72;;;24.51;53.04
56084;BME280;41958;52.416;13.428;2022-07-21T06:36:33;101068.97;;;24.90;52.58
56084;BME280;41958;52.416;13.428;2022-07-21T06:38:58;101075.91;;;24.49;53.00
56084;BME280;41958;52.416;13.428;2022-07-21T06:41:23;101084.44;;;24.53;53.33
56084;BME280;41958;52.416;13.428;2022-07-21T06:43:49;101087.13;;;24.60;52.83
56084;BME280;41958;52.416;13.428;2022-07-21T06:46:14;101090.69;;;24.68;52.70
56084;BME280;41958;52.416;13.428;2022-07-21T06:48:39;101081.44;;;24.80;52.30
56084;BME280;41958;52.416;13.428;2022-07-21T06:51:05;101079.31;;;24.84;51.98
56084;BME280;41958;52.416;13.428;2022-07-21T06:53:30;101095.38;;;24.78;52.22
56084;BME280;41958;52.416;13.428;2022-07-21T06:55:55;101097.44;;;24.78;52.28
56084;BME280;41958;52.416;13.428;2022-07-21T06:58:22;101089.31;;;25.13;51.92
56084;BME280;41958;52.416;13.428;2022-07-21T07:00:49;101083.34;;;25.23;50.52
56084;BME280;41958;52.416;13.428;2022-07-21T07:03:16;101078.59;;;25.37;51.02
56084;BME280;41958;52.416;13.428;2022-07-21T07:05:43;101081.34;;;25.40;50.31
56084;BME280;41958;52.416;13.428;2022-07-21T07:08:09;101075.91;;;25.63;50.83
56084;BME280;41958;52.416;13.428;2022-07-21T07:10:34;101071.50;;;25.74;50.42
56084;BME280;41958;52.416;13.428;2022-07-21T07:12:59;101084.50;;;25.79;49.67
56084;BME280;41958;52.416;13.428;2022-07-21T07:15:26;101078.03;;;26.08;48.79
56084;BME280;41958;52.416;13.428;2022-07-21T07:17:52;101082.06;;;26.11;48.43
56084;BME280;41958;52.416;13.428;2022-07-21T07:20:18;101083.94;;;26.01;48.63
56084;BME280;41958;52.416;13.428;2022-07-21T07:22:43;101091.38;;;26.15;48.91
56084;BME280;41958;52.416;13.428;2022-07-21T07:25:09;101093.94;;;26.25;48.98
56084;BME280;41958;52.416;13.428;2022-07-21T07:27:34;101096.81;;;26.25;48.18
56084;BME280;41958;52.416;13.428;2022-07-21T07:30:00;101098.00;;;26.12;48.45
56084;BME280;41958;52.416;13.428;2022-07-21T07:32:25;101116.78;;;26.29;48.46
56084;BME280;41958;52.416;13.428;2022-07-21T07:34:51;101111.22;;;26.22;48.29
56084;BME280;41958;52.416;13.428;2022-07-21T07:37:16;101117.53;;;26.46;47.73
56084;BME280;41958;52.416;13.428;2022-07-21T07:39:41;101110.69;;;26.86;47.76
56084;BME280;41958;52.416;13.428;2022-07-21T07:42:07;101115.44;;;26.63;46.92
56084;BME280;41958;52.416;13.428;2022-07-21T07:44:32;101130.38;;;26.71;47.28
56084;BME280;41958;52.416;13.428;2022-07-21T07:46:58;101120.25;;;26.96;47.23
56084;BME280;41958;52.416;13.428;2022-07-21T07:49:23;101116.81;;;27.01;45.74
56084;BME280;41958;52.416;13.428;2022-07-21T07:51:49;101136.75;;;26.91;45.71
56084;BME280;41958;52.416;13.428;2022-07-21T07:54:14;101131.59;;;26.99;45.67
56084;BME280;41958;52.416;13.428;2022-07-21T07:56:50;101128.22;;;27.17;45.28
56084;BME280;41958;52.416;13.428;2022-07-21T07:59:15;101121.13;;;27.35;45.28
56084;BME280;41958;52.416;13.428;2022-07-21T08:01:41;101127.06;;;27.27;44.69
56084;BME280;41958;52.416;13.428;2022-07-21T08:04:06;101129.84;;;27.44;45.34
56084;BME280;41958;52.416;13.428;2022-07-21T08:06:31;101131.34;;;27.49;44.89
56084;BME280;41958;52.416;13.428;2022-07-21T08:09:00;101129.47;;;27.29;44.84
56084;BME280;41958;52.416;13.428;2022-07-21T08:11:26;101130.75;;;27.28;44.82
56084;BME280;41958;52.416;13.428;2022-07-21T08:13:51;101137.25;;;27.16;44.99
56084;BME280;41958;52.416;13.428;2022-07-21T08:16:17;101139.00;;;27.13;45.22
56084;BME280;41958;52.416;13.428;2022-07-21T08:18:42;101140.59;;;27.14;45.07
56084;BME280;41958;52.416;13.428;2022-07-21T08:21:08;101137.31;;;26.86;45.26
56084;BME280;41958;52.416;13.428;2022-07-21T08:23:33;101133.69;;;27.12;45.57
56084;BME280;41958;52.416;13.428;2022-07-21T08:25:59;101134.00;;;27.43;45.11
56084;BME280;41958;52.416;13.428;2022-07-21T08:28:24;101126.06;;;27.60;45.45
56084;BME280;41958;52.416;13.428;2022-07-21T08:30:49;101139.28;;;27.57;44.52
56084;BME280;41958;52.416;13.428;2022-07-21T08:33:14;101134.78;;;27.56;44.56
56084;BME280;41958;52.416;13.428;2022-07-21T08:35:40;101138.03;;;27.46;44.86
56084;BME280;41958;52.416;13.428;2022-07-21T08:38:07;101149.13;;;27.56;45.03
56084;BME280;41958;52.416;13.428;2022-07-21T08:40:36;101141.13;;;27.51;45.25
56084;BME280;41958;52.416;13.428;2022-07-21T08:43:02;101144.88;;;27.74;45.23
56084;BME280;41958;52.416;13.428;2022-07-21T08:45:28;101141.63;;;27.33;44.84
56084;BME280;41958;52.416;13.428;2022-07-21T08:47:56;101133.78;;;27.50;45.15
56084;BME280;41958;52.416;13.428;2022-07-21T08:50:23;101141.44;;;28.05;44.30
56084;BME280;41958;52.416;13.428;2022-07-21T08:52:48;101135.13;;;28.45;43.54
56084;BME280;41958;52.416;13.428;2022-07-21T08:55:14;101142.16;;;28.66;43.16
56084;BME280;41958;52.416;13.428;2022-07-21T08:57:39;101131.59;;;28.85;42.82
56084;BME280;41958;52.416;13.428;2022-07-21T09:00:06;101129.19;;;28.84;43.19
56084;BME280;41958;52.416;13.428;2022-07-21T09:02:33;101132.34;;;28.76;43.92
56084;BME280;41958;52.416;13.428;2022-07-21T09:05:00;101139.16;;;28.92;42.50
56084;BME280;41958;52.416;13.428;2022-07-21T09:07:25;101142.63;;;29.09;41.58
56084;BME280;41958;52.416;13.428;2022-07-21T09:09:59;101127.06;;;29.51;40.13
56084;BME280;41958;52.416;13.428;2022-07-21T09:12:26;101131.91;;;29.63;39.45
56084;BME280;41958;52.416;13.428;2022-07-21T09:14:51;101128.31;;;29.90;38.83
56084;BME280;41958;52.416;13.428;2022-07-21T09:17:18;101119.72;;;30.18;38.31
56084;BME280;41958;52.416;13.428;2022-07-21T09:19:45;101121.81;;;30.27;37.81
56084;BME280;41958;52.416;13.428;2022-07-21T09:22:16;101114.94;;;30.43;38.37
56084;BME280;41958;52.416;13.428;2022-07-21T09:24:51;101113.81;;;30.40;37.93
56084;BME280;41958;52.416;13.428;2022-07-21T09:27:20;101124.19;;;30.10;38.29
56084;BME280;41958;52.416;13.428;2022-07-21T09:34:58;101126.09;;;31.15;36.71
56084;BME280;41958;52.416;13.428;2022-07-21T09:37:24;101118.38;;;31.21;36.66
56084;BME280;41958;52.416;13.428;2022-07-21T09:42:26;101120.19;;;31.09;36.74
56084;BME280;41958;52.416;13.428;2022-07-21T09:45:03;101125.00;;;30.94;37.39
56084;BME280;41958;52.416;13.428;2022-07-21T09:47:31;101132.34;;;31.23;36.76
56084;BME280;41958;52.416;13.428;2022-07-21T09:49:58;101134.47;;;30.94;36.67
56084;BME280;41958;52.416;13.428;2022-07-21T09:52:27;101130.34;;;30.49;37.70
56084;BME280;41958;52.416;13.428;2022-07-21T09:54:54;101126.13;;;30.41;36.83
56084;BME280;41958;52.416;13.428;2022-07-21T09:57:21;101132.56;;;30.45;37.58
56084;BME280;41958;52.416;13.428;2022-07-21T09:59:48;101130.63;;;30.33;36.88
56084;BME280;41958;52.416;13.428;2022-07-21T10:02:23;101122.97;;;30.57;36.37
56084;BME280;41958;52.416;13.428;2022-07-21T10:05:04;101135.25;;;31.14;36.17
56084;BME280;41958;52.416;13.428;2022-07-21T10:07:31;101140.25;;;30.76;36.43
56084;BME280;41958;52.416;13.428;2022-07-21T10:09:58;101152.22;;;31.21;35.47
56084;BME280;41958;52.416;13.428;2022-07-21T10:12:26;101148.41;;;30.96;35.41
56084;BME280;41958;52.416;13.428;2022-07-21T10:14:52;101151.34;;;30.50;36.31
56084;BME280;41958;52.416;13.428;2022-07-21T10:17:19;101156.75;;;30.85;35.97
56084;BME280;41958;52.416;13.428;2022-07-21T10:25:22;101175.75;;;29.67;37.37
56084;BME280;41958;52.416;13.428;2022-07-21T10:28:19;101171.97;;;29.80;37.10
56084;BME280;41958;52.416;13.428;2022-07-21T10:30:54;101185.91;;;29.50;37.88
56084;BME280;41958;52.416;13.428;2022-07-21T10:34:06;101174.44;;;29.59;38.11
56084;BME280;41958;52.416;13.428;2022-07-21T10:36:07;101199.28;;;29.66;37.69
56084;BME280;41958;52.416;13.428;2022-07-21T10:38:34;101200.06;;;29.35;38.55
56084;BME280;41958;52.416;13.428;2022-07-21T10:41:01;101203.69;;;29.04;38.18
56084;BME280;41958;52.416;13.428;2022-07-21T10:45:53;101200.50;;;28.67;39.20
56084;BME280;41958;52.416;13.428;2022-07-21T10:51:03;101195.69;;;28.64;40.12
56084;BME280;41958;52.416;13.428;2022-07-21T10:53:28;101190.28;;;28.88;39.75
56084;BME280;41958;52.416;13.428;2022-07-21T10:55:55;101191.91;;;28.89;39.89
56084;BME280;41958;52.416;13.428;2022-07-21T10:58:24;101191.69;;;29.05;39.33
56084;BME280;41958;52.416;13.428;2022-07-21T11:03:34;101192.50;;;29.06;40.17
56084;BME280;41958;52.416;13.428;2022-07-21T11:06:12;101198.06;;;29.22;39.31
56084;BME280;41958;52.416;13.428;2022-07-21T11:08:39;101189.63;;;29.28;39.29
56084;BME280;41958;52.416;13.428;2022-07-21T11:11:16;101200.50;;;29.11;39.49
56084;BME280;41958;52.416;13.428;2022-07-21T11:14:18;101186.28;;;29.30;39.54
56084;BME280;41958;52.416;13.428;2022-07-21T11:19:41;101183.22;;;29.55;39.43
56084;BME280;41958;52.416;13.428;2022-07-21T11:22:22;101185.25;;;29.46;40.15
56084;BME280;41958;52.416;13.428;2022-07-21T11:25:04;101188.00;;;29.49;38.88
56084;BME280;41958;52.416;13.428;2022-07-21T11:27:34;101179.97;;;29.85;39.03
56084;BME280;41958;52.416;13.428;2022-07-21T11:30:03;101183.56;;;29.89;38.51
56084;BME280;41958;52.416;13.428;2022-07-21T11:32:29;101183.56;;;29.57;38.83
56084;BME280;41958;52.416;13.428;2022-07-21T11:34:57;101191.81;;;29.46;39.55
56084;BME280;41958;52.416;13.428;2022-07-21T11:39:57;101193.53;;;29.34;40.37
56084;BME280;41958;52.416;13.428;2022-07-21T11:42:27;101201.06;;;29.41;39.54
56084;BME280;41958;52.416;13.428;2022-07-21T11:44:53;101186.69;;;28.97;40.00
56084;BME280;41958;52.416;13.428;2022-07-21T11:47:18;101199.13;;;28.93;40.46
56084;BME280;41958;52.416;13.428;2022-07-21T11:49:45;101187.66;;;29.03;40.67
56084;BME280;41958;52.416;13.428;2022-07-21T11:52:14;101185.34;;;28.88;41.27
56084;BME280;41958;52.416;13.428;2022-07-21T11:54:50;101197.84;;;28.94;41.42
56084;BME280;41958;52.416;13.428;2022-07-21T11:57:18;101200.50;;;28.67;42.30
56084;BME280;41958;52.416;13.428;2022-07-21T11:59:44;101187.16;;;28.60;42.89
56084;BME280;41958;52.416;13.428;2022-07-21T12:02:12;101188.66;;;28.65;42.40
56084;BME280;41958;52.416;13.428;2022-07-21T12:04:43;101168.22;;;28.50;42.53
56084;BME280;41958;52.416;13.428;2022-07-21T12:07:18;101157.56;;;28.37;42.65
56084;BME280;41958;52.416;13.428;2022-07-21T12:09:45;101160.97;;;28.10;43.18
56084;BME280;41958;52.416;13.428;2022-07-21T12:12:11;101182.69;;;28.11;43.38
56084;BME280;41958;52.416;13.428;2022-07-21T12:14:45;101169.13;;;27.99;43.87
56084;BME280;41958;52.416;13.428;2022-07-21T12:17:12;101172.72;;;27.77;44.45
56084;BME280;41958;52.416;13.428;2022-07-21T12:19:38;101187.50;;;27.63;44.50
56084;BME280;41958;52.416;13.428;2022-07-21T12:22:04;101186.22;;;27.51;46.10
56084;BME280;41958;52.416;13.428;2022-07-21T12:24:53;101178.00;;;27.11;47.02
56084;BME280;41958;52.416;13.428;2022-07-21T12:27:19;101181.13;;;27.16;47.42
56084;BME280;41958;52.416;13.428;2022-07-21T12:29:45;101195.63;;;26.96;47.68
56084;BME280;41958;52.416;13.428;2022-07-21T12:32:11;101198.00;;;26.85;48.67
56084;BME280;41958;52.416;13.428;2022-07-21T12:34:50;101197.19;;;26.84;50.37
56084;BME280;41958;52.416;13.428;2022-07-21T12:37:19;101200.31;;;26.44;51.61
56084;BME280;41958;52.416;13.428;2022-07-21T12:40:03;101208.91;;;26.44;53.68
56084;BME280;41958;52.416;13.428;2022-07-21T12:42:35;101214.25;;;26.42;54.02
56084;BME280;41958;52.416;13.428;2022-07-21T12:45:13;101206.38;;;26.46;52.56
56084;BME280;41958;52.416;13.428;2022-07-21T12:47:39;101218.66;;;26.47;51.74
56084;BME280;41958;52.416;13.428;2022-07-21T12:50:07;101202.44;;;26.23;52.87
56084;BME280;41958;52.416;13.428;2022-07-21T12:52:33;101198.97;;;26.16;54.03
56084;BME280;41958;52.416;13.428;2022-07-21T12:54:59;101201.28;;;26.04;55.43
56084;BME280;41958;52.416;13.428;2022-07-21T12:57:29;101202.38;;;26.11;56.66
56084;BME280;41958;52.416;13.428;2022-07-21T12:59:56;101215.78;;;26.14;55.71
56084;BME280;41958;52.416;13.428;2022-07-21T13:02:21;101209.75;;;25.91;56.80
56084;BME280;41958;52.416;13.428;2022-07-21T13:04:47;101207.47;;;25.66;60.60
56084;BME280;41958;52.416;13.428;2022-07-21T13:07:12;101217.19;;;25.52;62.41